createdAt,value
2022-11-07T00:00:17.873Z,69.8
2022-11-07T00:01:17.866Z,69.5
2022-11-07T00:02:17.971Z,68.6
2022-11-07T00:03:18.351Z,69.1
2022-11-07T00:04:17.873Z,68.9
2022-11-07T00:05:17.873Z,68.7
2022-11-07T00:06:17.913Z,69.4
2022-11-07T00:07:17.890Z,69
2022-11-07T00:08:17.873Z,68.5
2022-11-07T00:09:17.870Z,68.3
2022-11-07T00:10:17.870Z,67.7
2022-11-07T00:11:17.876Z,68.2
2022-11-07T00:12:17.867Z,68
2022-11-07T00:13:17.874Z,68.6
2022-11-07T00:14:17.888Z,68.8
2022-11-07T00:15:17.872Z,69.8
2022-11-07T00:16:17.889Z,70.1
2022-11-07T00:17:17.876Z,69.5
2022-11-07T00:18:17.875Z,70.1
2022-11-07T00:19:17.874Z,70.1
2022-11-07T00:20:17.878Z,70.1
2022-11-07T00:21:17.869Z,69.3
2022-11-07T00:22:17.877Z,68.7
2022-11-07T00:23:17.874Z,68.9
2022-11-07T00:24:17.880Z,68.3
2022-11-07T00:25:17.873Z,68.1
2022-11-07T00:26:17.880Z,68.1
2022-11-07T00:27:17.947Z,67.7
2022-11-07T00:28:17.869Z,68
2022-11-07T00:29:17.872Z,68.7
2022-11-07T00:30:17.877Z,68.4
2022-11-07T00:31:17.883Z,69.1
2022-11-07T00:32:17.886Z,69.4
2022-11-07T00:33:17.879Z,69.2
2022-11-07T00:34:17.877Z,69.1
2022-11-07T00:35:17.870Z,69.5
2022-11-07T00:36:17.875Z,69.6
2022-11-07T00:37:17.902Z,70.2
2022-11-07T00:38:17.883Z,70.3
2022-11-07T00:39:17.874Z,69.8
2022-11-07T00:40:17.932Z,69.7
2022-11-07T00:41:17.881Z,70.4
2022-11-07T00:42:17.882Z,70.4
2022-11-07T00:43:17.881Z,70.7
2022-11-07T00:44:17.882Z,70.3
2022-11-07T00:45:17.869Z,70.1
2022-11-07T00:47:17.884Z,69.6
2022-11-07T00:48:17.879Z,69.3
2022-11-07T00:49:17.876Z,69
2022-11-07T00:50:17.873Z,70.1
2022-11-07T00:51:17.876Z,70.1
2022-11-07T00:52:17.881Z,69.4
2022-11-07T00:53:18.082Z,69.1
2022-11-07T00:54:17.878Z,68.7
2022-11-07T00:55:17.872Z,68.7
2022-11-07T00:56:17.877Z,68.5
2022-11-07T00:57:17.874Z,68.1
2022-11-07T00:58:17.891Z,67.7
2022-11-07T00:59:17.871Z,67.5
2022-11-07T01:00:17.912Z,67.3
2022-11-07T01:01:17.925Z,68.1
2022-11-07T01:02:18.102Z,69.1
2022-11-07T01:03:18.091Z,69.9
2022-11-07T01:04:17.872Z,70.3
2022-11-07T01:05:17.874Z,70.7
2022-11-07T01:06:17.883Z,70.6
2022-11-07T01:07:17.873Z,71.2
2022-11-07T01:08:17.903Z,70.6
2022-11-07T01:09:17.878Z,70.4
2022-11-07T01:10:17.881Z,69.5
2022-11-07T01:11:17.899Z,69.1
2022-11-07T01:12:17.897Z,69.8
2022-11-07T01:13:17.885Z,69.2
2022-11-07T01:14:17.880Z,69.7
2022-11-07T01:15:17.874Z,70.2
2022-11-07T01:16:17.877Z,70.3
2022-11-07T01:17:17.887Z,70.6
2022-11-07T01:18:17.879Z,70.2
2022-11-07T01:19:17.886Z,70.2
2022-11-07T01:20:17.879Z,70.6
2022-11-07T01:21:17.878Z,70.9
2022-11-07T01:22:17.884Z,71.1
2022-11-07T01:23:18.285Z,71.6
2022-11-07T01:24:17.878Z,70.8
2022-11-07T01:25:17.882Z,69.9
2022-11-07T01:26:17.891Z,70.4
2022-11-07T01:27:17.878Z,71
2022-11-07T01:28:17.877Z,71
2022-11-07T01:29:17.876Z,70.8
2022-11-07T01:30:17.879Z,71.1
2022-11-07T01:31:17.896Z,71.8
2022-11-07T01:32:17.890Z,71.5
2022-11-07T01:33:17.990Z,71.8
2022-11-07T01:34:17.894Z,72
2022-11-07T01:35:17.876Z,72.2
2022-11-07T01:36:17.882Z,72.2
2022-11-07T01:37:17.882Z,72.1
2022-11-07T01:38:17.880Z,72.2
2022-11-07T01:39:17.908Z,72.3
2022-11-07T01:40:17.883Z,71.8
2022-11-07T01:41:17.878Z,71.3
2022-11-07T01:42:17.884Z,71.2
2022-11-07T01:43:17.885Z,70.6
2022-11-07T01:44:17.876Z,71.1
2022-11-07T01:45:17.886Z,71.1
2022-11-07T01:46:17.884Z,71.2
2022-11-07T01:47:17.885Z,71.7
2022-11-07T01:48:17.873Z,71.1
2022-11-07T01:49:17.878Z,71.5
2022-11-07T01:50:17.886Z,71.1
2022-11-07T01:51:17.883Z,71.8
2022-11-07T01:52:17.883Z,72.1
2022-11-07T01:53:18.048Z,72.4
2022-11-07T01:54:17.881Z,72.4
2022-11-07T01:56:17.879Z,71.8
2022-11-07T01:57:17.886Z,71.9
2022-11-07T01:58:17.880Z,72.8
2022-11-07T01:59:17.873Z,72.5
2022-11-07T02:00:17.877Z,72
2022-11-07T02:01:17.922Z,72.1
2022-11-07T02:02:18.218Z,72.2
2022-11-07T02:03:18.157Z,72.8
2022-11-07T02:04:17.893Z,72.9
2022-11-07T02:05:17.878Z,73.5
2022-11-07T02:06:17.894Z,73.5
2022-11-07T02:07:17.878Z,73.4
2022-11-07T02:08:17.876Z,73.3
2022-11-07T02:09:17.932Z,72.7
2022-11-07T02:10:17.904Z,71.5
2022-11-07T02:11:17.893Z,71.3
2022-11-07T02:12:17.875Z,71
2022-11-07T02:13:17.889Z,71.8
2022-11-07T02:14:17.881Z,72.7
2022-11-07T02:15:17.890Z,72.5
2022-11-07T02:16:17.888Z,71.9
2022-11-07T02:17:17.889Z,71.7
2022-11-07T02:18:17.878Z,72.4
2022-11-07T02:19:17.881Z,71.6
2022-11-07T02:20:17.882Z,71.6
2022-11-07T02:21:17.886Z,71.7
2022-11-07T02:22:17.879Z,72.1
2022-11-07T02:23:17.951Z,71.8
2022-11-07T02:24:17.886Z,70.9
2022-11-07T02:25:17.919Z,70.7
2022-11-07T02:26:17.882Z,71.5
2022-11-07T02:27:17.887Z,71.7
2022-11-07T02:28:17.883Z,71.5
2022-11-07T02:29:17.878Z,72
2022-11-07T02:30:17.881Z,71.9
2022-11-07T02:31:17.878Z,72.1
2022-11-07T02:32:17.890Z,72.3
2022-11-07T02:33:17.880Z,71.5
2022-11-07T02:34:17.879Z,71.8
2022-11-07T02:35:17.882Z,71.4
2022-11-07T02:36:17.883Z,71.4
2022-11-07T02:37:17.885Z,71.5
2022-11-07T02:38:17.880Z,70.9
2022-11-07T02:39:17.882Z,70.8
2022-11-07T02:40:17.882Z,70.8
2022-11-07T02:41:17.923Z,71
2022-11-07T02:42:17.885Z,71.5
2022-11-07T02:43:18.057Z,72.1
2022-11-07T02:44:17.953Z,72
2022-11-07T02:45:17.890Z,71.6
2022-11-07T02:47:17.886Z,71.6
2022-11-07T02:48:17.890Z,72
2022-11-07T02:49:17.899Z,72.1
2022-11-07T02:50:17.877Z,72
2022-11-07T02:51:17.881Z,72
2022-11-07T02:52:17.876Z,71.6
2022-11-07T02:53:18.185Z,71.8
2022-11-07T02:54:17.884Z,71.3
2022-11-07T02:55:18.119Z,71.2
2022-11-07T02:56:17.879Z,71.1
2022-11-07T02:57:17.884Z,71.8
2022-11-07T02:58:17.884Z,71.4
2022-11-07T02:59:18.695Z,71.3
2022-11-07T03:00:17.887Z,70.5
2022-11-07T03:01:17.934Z,70.6
2022-11-07T03:02:18.045Z,70.4
2022-11-07T03:03:18.079Z,70.9
2022-11-07T03:04:17.878Z,70.3
2022-11-07T03:05:17.884Z,69.4
2022-11-07T03:06:17.881Z,68.7
2022-11-07T03:07:17.890Z,68
2022-11-07T03:08:17.893Z,67.7
2022-11-07T03:09:17.887Z,67.8
2022-11-07T03:10:17.894Z,67.7
2022-11-07T03:11:17.878Z,67.6
2022-11-07T03:12:17.908Z,68.4
2022-11-07T03:13:17.927Z,68.9
2022-11-07T03:14:17.945Z,68.9
2022-11-07T03:15:17.888Z,68.8
2022-11-07T03:16:17.886Z,69
2022-11-07T03:17:17.882Z,69
2022-11-07T03:18:17.885Z,69.1
2022-11-07T03:19:17.894Z,68.6
2022-11-07T03:20:17.885Z,68.8
2022-11-07T03:21:17.887Z,68.8
2022-11-07T03:22:17.888Z,69.9
2022-11-07T03:24:17.892Z,69.5
2022-11-07T03:25:17.887Z,69
2022-11-07T03:26:17.894Z,68.5
2022-11-07T03:27:17.890Z,68.6
2022-11-07T03:28:17.888Z,68.9
2022-11-07T03:29:17.895Z,68.8
2022-11-07T03:30:17.884Z,68.9
2022-11-07T03:31:17.885Z,69.9
2022-11-07T03:32:17.889Z,69.9
2022-11-07T03:33:18.142Z,70.3
2022-11-07T03:34:17.880Z,71.3
2022-11-07T03:35:17.888Z,70.7
2022-11-07T03:36:17.887Z,70.2
2022-11-07T03:37:17.886Z,70.2
2022-11-07T03:38:17.895Z,69.5
2022-11-07T03:39:23.122Z,69.1
2022-11-07T03:40:17.889Z,69.3
2022-11-07T03:41:17.892Z,69.9
2022-11-07T03:42:17.887Z,70.3
2022-11-07T03:43:18.085Z,70.7
2022-11-07T03:44:17.892Z,70.8
2022-11-07T03:45:17.897Z,71.3
2022-11-07T03:46:17.890Z,71.6
2022-11-07T03:47:17.895Z,72.3
2022-11-07T03:48:17.891Z,71.7
2022-11-07T03:49:17.890Z,71.8
2022-11-07T03:50:17.896Z,72.1
2022-11-07T03:51:17.884Z,72.3
2022-11-07T03:52:17.891Z,71.4
2022-11-07T03:53:23.878Z,70.4
2022-11-07T03:54:17.895Z,70.6
2022-11-07T03:55:17.900Z,71.6
2022-11-07T03:56:17.885Z,71.5
2022-11-07T03:57:17.885Z,71.5
2022-11-07T03:58:17.902Z,71.9
2022-11-07T03:59:17.883Z,73.2
2022-11-07T04:00:17.921Z,73.9
2022-11-07T04:01:17.930Z,73.8
2022-11-07T04:02:18.133Z,73.8
2022-11-07T04:04:17.897Z,74
2022-11-07T04:05:17.902Z,73.3
2022-11-07T04:06:17.888Z,72.4
2022-11-07T04:07:17.895Z,73.4
2022-11-07T04:08:17.895Z,74
2022-11-07T04:09:17.900Z,73.5
2022-11-07T04:10:17.891Z,73.1
2022-11-07T04:11:17.896Z,73.8
2022-11-07T04:12:17.889Z,73.6
2022-11-07T04:13:17.893Z,74.2
2022-11-07T04:14:17.930Z,73.8
2022-11-07T04:15:17.900Z,73.8
2022-11-07T04:16:17.967Z,74.1
2022-11-07T04:17:17.916Z,73.8
2022-11-07T04:18:17.898Z,73.2
2022-11-07T04:19:17.898Z,72.8
2022-11-07T04:20:17.893Z,73.4
2022-11-07T04:21:17.899Z,73.7
2022-11-07T04:22:17.890Z,74.4
2022-11-07T04:23:18.111Z,74.3
2022-11-07T04:24:17.917Z,73.8
2022-11-07T04:25:17.894Z,73.1
2022-11-07T04:26:17.898Z,73.1
2022-11-07T04:27:17.896Z,73
2022-11-07T04:28:17.957Z,73.4
2022-11-07T04:29:17.900Z,73.5
2022-11-07T04:30:17.891Z,74
2022-11-07T04:31:17.898Z,73.5
2022-11-07T04:32:17.894Z,73.3
2022-11-07T04:33:18.033Z,72.5
2022-11-07T04:34:17.893Z,72.5
2022-11-07T04:35:17.895Z,73.3
2022-11-07T04:36:17.895Z,72.9
2022-11-07T04:37:17.886Z,73.2
2022-11-07T04:38:17.889Z,73.6
2022-11-07T04:39:17.910Z,73.4
2022-11-07T04:40:17.889Z,72.7
2022-11-07T04:41:17.892Z,72.2
2022-11-07T04:42:17.895Z,72.7
2022-11-07T04:43:18.031Z,72.6
2022-11-07T04:44:17.889Z,72.3
2022-11-07T04:45:17.921Z,72.4
2022-11-07T04:47:17.894Z,71.8
2022-11-07T04:48:17.894Z,72.3
2022-11-07T04:49:17.887Z,73.5
2022-11-07T04:50:17.891Z,73.8
2022-11-07T04:51:17.888Z,73.8
2022-11-07T04:52:17.898Z,73.6
2022-11-07T04:53:18.020Z,73.3
2022-11-07T04:54:17.903Z,73.6
2022-11-07T04:55:17.896Z,74.1
2022-11-07T04:56:17.895Z,73.6
2022-11-07T04:57:17.896Z,73.4
2022-11-07T04:58:17.897Z,73.4
2022-11-07T04:59:17.893Z,73.2
2022-11-07T05:00:17.892Z,74.2
2022-11-07T05:01:17.893Z,73.3
2022-11-07T05:02:17.982Z,73.7
2022-11-07T05:03:18.317Z,74.6
2022-11-07T05:04:17.897Z,74.5
2022-11-07T05:05:17.895Z,74.4
2022-11-07T05:06:17.894Z,73.8
2022-11-07T05:07:17.897Z,73.9
2022-11-07T05:08:17.888Z,75
2022-11-07T05:09:17.900Z,75.1
2022-11-07T05:10:17.892Z,74.6
2022-11-07T05:11:17.891Z,74.8
2022-11-07T05:12:17.959Z,74.5
2022-11-07T05:13:17.999Z,74.5
2022-11-07T05:14:17.891Z,75.2
2022-11-07T05:15:17.892Z,75.1
2022-11-07T05:16:17.925Z,74.6
2022-11-07T05:18:17.892Z,73.9
2022-11-07T05:19:17.900Z,73.9
2022-11-07T05:20:17.898Z,73.6
2022-11-07T05:21:17.898Z,73.5
2022-11-07T05:22:17.896Z,72.9
2022-11-07T05:23:18.373Z,72.5
2022-11-07T05:24:17.911Z,72.2
2022-11-07T05:25:17.894Z,72.2
2022-11-07T05:26:17.902Z,72.4
2022-11-07T05:27:17.900Z,72.4
2022-11-07T05:28:19.121Z,72.5
2022-11-07T05:29:17.888Z,73.2
2022-11-07T05:30:17.897Z,72.6
2022-11-07T05:31:17.894Z,72.4
2022-11-07T05:32:17.908Z,72.2
2022-11-07T05:33:18.186Z,72.8
2022-11-07T05:34:17.900Z,73.3
2022-11-07T05:35:17.890Z,73.4
2022-11-07T05:36:17.899Z,73.4
2022-11-07T05:37:17.897Z,73.4
2022-11-07T05:39:17.903Z,73.9
2022-11-07T05:40:17.898Z,73
2022-11-07T05:41:17.897Z,73.1
2022-11-07T05:42:17.895Z,73
2022-11-07T05:43:18.187Z,72.5
2022-11-07T05:44:17.900Z,72.4
2022-11-07T05:45:17.899Z,71.7
2022-11-07T05:46:17.901Z,71.2
2022-11-07T05:47:18.027Z,71
2022-11-07T05:48:17.899Z,70.8
2022-11-07T05:49:17.902Z,71.4
2022-11-07T05:50:17.896Z,71.7
2022-11-07T05:51:17.904Z,72.6
2022-11-07T05:52:17.898Z,72.5
2022-11-07T05:53:18.258Z,72.3
2022-11-07T05:54:17.894Z,72
2022-11-07T05:55:17.904Z,72.3
2022-11-07T05:56:17.900Z,73
2022-11-07T05:57:17.906Z,73.3
2022-11-07T05:58:17.902Z,73.4
2022-11-07T05:59:17.897Z,73.1
2022-11-07T06:00:17.898Z,72.9
2022-11-07T06:01:17.899Z,72.6
2022-11-07T06:02:18.027Z,72.8
2022-11-07T06:03:18.471Z,73.1
2022-11-07T06:04:17.897Z,72.7
2022-11-07T06:05:20.480Z,72.2
2022-11-07T06:06:17.897Z,72.5
2022-11-07T06:07:17.897Z,73.1
2022-11-07T06:08:17.902Z,73.2
2022-11-07T06:09:17.895Z,73
2022-11-07T06:10:17.893Z,72.6
2022-11-07T06:11:17.901Z,72.1
2022-11-07T06:12:17.895Z,71.7
2022-11-07T06:13:18.393Z,71.4
2022-11-07T06:14:17.897Z,71.7
2022-11-07T06:15:17.904Z,72.6
2022-11-07T06:16:17.898Z,72.1
2022-11-07T06:17:17.897Z,72.5
2022-11-07T06:18:17.920Z,72.4
2022-11-07T06:19:17.896Z,72
2022-11-07T06:20:17.898Z,72
2022-11-07T06:21:17.898Z,72.2
2022-11-07T06:22:17.900Z,71.8
2022-11-07T06:23:18.427Z,71.9
2022-11-07T06:24:17.907Z,71.9
2022-11-07T06:25:17.892Z,71.6
2022-11-07T06:26:17.900Z,71.6
2022-11-07T06:27:17.896Z,71.5
2022-11-07T06:28:17.904Z,72.1
2022-11-07T06:29:17.913Z,72
2022-11-07T06:30:17.916Z,72.1
2022-11-07T06:31:17.898Z,72
2022-11-07T06:32:17.919Z,71.9
2022-11-07T06:33:18.874Z,70.7
2022-11-07T06:34:17.916Z,70.1
2022-11-07T06:35:17.897Z,69.9
2022-11-07T06:36:17.902Z,70.5
2022-11-07T06:37:17.895Z,70.7
2022-11-07T06:38:17.896Z,70.7
2022-11-07T06:39:17.911Z,70.7
2022-11-07T06:40:17.907Z,71
2022-11-07T06:41:17.900Z,71.1
2022-11-07T06:42:17.905Z,71
2022-11-07T06:43:18.388Z,70.8
2022-11-07T06:44:17.909Z,71.2
2022-11-07T06:45:17.907Z,70.8
2022-11-07T06:47:17.907Z,70
2022-11-07T06:48:17.910Z,70.2
2022-11-07T06:49:17.923Z,70.4
2022-11-07T06:50:17.904Z,70.4
2022-11-07T06:51:17.897Z,70.3
2022-11-07T06:52:17.897Z,69.9
2022-11-07T06:53:18.276Z,70.3
2022-11-07T06:54:17.922Z,70.4
2022-11-07T06:55:17.897Z,69.8
2022-11-07T06:56:17.908Z,69.6
2022-11-07T06:57:17.904Z,69.4
2022-11-07T06:58:17.906Z,70.1
2022-11-07T06:59:17.909Z,70.5
2022-11-07T07:00:17.918Z,70.7
2022-11-07T07:01:17.993Z,71.1
2022-11-07T07:02:30.805Z,71.2
2022-11-07T07:03:18.466Z,71.3
2022-11-07T07:05:21.080Z,70.7
2022-11-07T07:06:17.910Z,70.6
2022-11-07T07:07:17.899Z,71.2
2022-11-07T07:08:17.906Z,71.5
2022-11-07T07:09:17.905Z,71.3
2022-11-07T07:10:17.896Z,71.6
2022-11-07T07:11:17.909Z,71
2022-11-07T07:12:17.902Z,70.7
2022-11-07T07:13:18.324Z,70.8
2022-11-07T07:14:17.908Z,70.9
2022-11-07T07:15:17.911Z,70.8
2022-11-07T07:16:17.901Z,71
2022-11-07T07:17:17.905Z,70.7
2022-11-07T07:18:17.901Z,70.1
2022-11-07T07:19:17.900Z,70.3
2022-11-07T07:20:18.133Z,70.7
2022-11-07T07:21:17.903Z,71.5
2022-11-07T07:22:17.907Z,71.5
2022-11-07T07:23:18.253Z,70.8
2022-11-07T07:24:17.909Z,70.2
2022-11-07T07:26:17.907Z,69.6
2022-11-07T07:27:17.906Z,69.9
2022-11-07T07:28:17.910Z,70.2
2022-11-07T07:29:17.899Z,70.3
2022-11-07T07:30:17.903Z,70.6
2022-11-07T07:31:17.913Z,70.2
2022-11-07T07:32:17.910Z,69.8
2022-11-07T07:33:18.349Z,69.3
2022-11-07T07:34:17.907Z,69.2
2022-11-07T07:35:17.908Z,69.3
2022-11-07T07:36:20.690Z,69.6
2022-11-07T07:37:17.905Z,70.1
2022-11-07T07:38:17.905Z,70.2
2022-11-07T07:39:17.896Z,69.7
2022-11-07T07:40:17.909Z,68.9
2022-11-07T07:41:17.907Z,69
2022-11-07T07:42:17.908Z,69.1
2022-11-07T07:43:18.168Z,69.2
2022-11-07T07:44:17.964Z,69.3
2022-11-07T07:45:17.914Z,68.6
2022-11-07T07:46:17.906Z,68.2
2022-11-07T07:47:17.903Z,68
2022-11-07T07:48:17.911Z,68.2
2022-11-07T07:49:17.901Z,68.1
2022-11-07T07:50:17.909Z,67.9
2022-11-07T07:51:18.023Z,68.2
2022-11-07T07:52:17.909Z,68.3
2022-11-07T07:53:18.256Z,67.9
2022-11-07T07:54:17.909Z,68.5
2022-11-07T07:55:17.903Z,68.8
2022-11-07T07:56:17.903Z,68.9
2022-11-07T07:57:17.905Z,68.9
2022-11-07T07:58:17.909Z,68
2022-11-07T07:59:17.910Z,67.6
2022-11-07T08:00:17.906Z,67.5
2022-11-07T08:01:17.978Z,66.7
2022-11-07T08:02:17.963Z,66
2022-11-07T08:03:18.272Z,65.9
2022-11-07T08:04:17.913Z,66
2022-11-07T08:05:17.909Z,66.4
2022-11-07T08:06:17.910Z,67.5
2022-11-07T08:08:17.913Z,68.1
2022-11-07T08:09:17.906Z,68.2
2022-11-07T08:10:40.974Z,68.5
2022-11-07T08:11:17.922Z,68.5
2022-11-07T08:12:17.904Z,69.6
2022-11-07T08:13:18.263Z,70.4
2022-11-07T08:14:17.912Z,69.7
2022-11-07T08:15:17.913Z,69
2022-11-07T08:16:17.910Z,68.4
2022-11-07T08:18:17.909Z,68
2022-11-07T08:19:17.904Z,67.7
2022-11-07T08:20:17.914Z,67.8
2022-11-07T08:21:17.913Z,67.3
2022-11-07T08:22:18.026Z,67.3
2022-11-07T08:23:18.332Z,67
2022-11-07T08:24:17.913Z,67.2
2022-11-07T08:25:17.916Z,67.1
2022-11-07T08:26:17.918Z,67
2022-11-07T08:27:17.910Z,67.6
2022-11-07T08:28:17.916Z,67.7
2022-11-07T08:29:17.914Z,67.4
2022-11-07T08:30:18.380Z,67.3
2022-11-07T08:31:17.911Z,67.4
2022-11-07T08:32:17.926Z,67.1
2022-11-07T08:33:18.333Z,67.1
2022-11-07T08:34:17.916Z,67.6
2022-11-07T08:35:17.910Z,67.2
2022-11-07T08:36:17.909Z,67.2
2022-11-07T08:37:17.914Z,67.2
2022-11-07T08:38:17.913Z,67.6
2022-11-07T08:39:17.919Z,67.5
2022-11-07T08:40:17.909Z,67
2022-11-07T08:41:21.928Z,66.6
2022-11-07T08:42:17.914Z,67
2022-11-07T08:43:18.125Z,67.1
2022-11-07T08:44:17.909Z,66.9
2022-11-07T08:45:17.923Z,66.3
2022-11-07T08:47:17.931Z,65
2022-11-07T08:48:17.921Z,64.2
2022-11-07T08:49:17.916Z,63.9
2022-11-07T08:50:17.920Z,63.3
2022-11-07T08:51:17.922Z,63.1
2022-11-07T08:52:17.907Z,62.7
2022-11-07T08:53:18.208Z,63.5
2022-11-07T08:54:17.909Z,63.8
2022-11-07T08:55:17.910Z,65
2022-11-07T08:56:17.919Z,65.3
2022-11-07T08:57:17.916Z,65.4
2022-11-07T08:58:17.915Z,65.4
2022-11-07T08:59:17.917Z,64.7
2022-11-07T09:00:17.921Z,64.7
2022-11-07T09:01:17.976Z,64.7
2022-11-07T09:03:39.279Z,64.5
2022-11-07T09:04:18.031Z,64.6
2022-11-07T09:05:17.921Z,64.8
2022-11-07T09:06:17.926Z,65.3
2022-11-07T09:07:17.920Z,65.6
2022-11-07T09:08:17.919Z,65.8
2022-11-07T09:09:17.929Z,65.2
2022-11-07T09:10:17.917Z,65.1
2022-11-07T09:11:17.913Z,65.5
2022-11-07T09:12:17.922Z,65.9
2022-11-07T09:13:18.165Z,65.8
2022-11-07T09:14:17.914Z,65.5
2022-11-07T09:15:17.915Z,65.6
2022-11-07T09:16:17.917Z,65.6
2022-11-07T09:17:17.921Z,65.2
2022-11-07T09:18:17.915Z,65.5
2022-11-07T09:19:17.922Z,65.5
2022-11-07T09:20:17.923Z,65.4
2022-11-07T09:21:22.476Z,65.1
2022-11-07T09:22:17.923Z,65.3
2022-11-07T09:23:18.270Z,65.8
2022-11-07T09:24:17.950Z,65.3
2022-11-07T09:25:17.912Z,64.4
2022-11-07T09:26:17.918Z,63.7
2022-11-07T09:27:17.942Z,64.1
2022-11-07T09:28:17.929Z,63.1
2022-11-07T09:29:17.915Z,62.8
2022-11-07T09:30:18.005Z,63.2
2022-11-07T09:31:17.914Z,64.5
2022-11-07T09:32:43.385Z,64.3
2022-11-07T09:33:18.174Z,63.8
2022-11-07T09:34:17.917Z,64.1
2022-11-07T09:35:17.920Z,63.8
2022-11-07T09:36:17.935Z,63.5
2022-11-07T09:37:17.921Z,62.7
2022-11-07T09:38:17.921Z,62.2
2022-11-07T09:39:17.924Z,62.3
2022-11-07T09:40:17.916Z,61.3
2022-11-07T09:41:17.930Z,61.3
2022-11-07T09:42:18.225Z,61
2022-11-07T09:43:18.408Z,61
2022-11-07T09:44:17.932Z,61.3
2022-11-07T09:45:17.929Z,61.3
2022-11-07T09:46:17.924Z,61.2
2022-11-07T09:47:17.929Z,62.4
2022-11-07T09:48:17.927Z,63.4
2022-11-07T09:49:17.925Z,63.9
2022-11-07T09:50:17.928Z,63.5
2022-11-07T09:51:17.917Z,64.3
2022-11-07T09:52:17.928Z,63.9
2022-11-07T09:53:18.258Z,63.4
2022-11-07T09:54:17.931Z,63.1
2022-11-07T09:55:17.967Z,63.1
2022-11-07T09:56:17.947Z,62.8
2022-11-07T09:57:17.934Z,62.6
2022-11-07T09:58:17.925Z,62.5
2022-11-07T09:59:17.923Z,63.1
2022-11-07T10:00:17.925Z,62.9
2022-11-07T10:02:17.965Z,62.6
2022-11-07T10:03:18.076Z,63.1
2022-11-07T10:04:26.618Z,63.3
2022-11-07T10:05:17.925Z,63.7
2022-11-07T10:06:21.577Z,65
2022-11-07T10:07:17.925Z,65.7
2022-11-07T10:08:17.927Z,65.8
2022-11-07T10:09:17.935Z,66.1
2022-11-07T10:10:17.929Z,66.4
2022-11-07T10:11:17.926Z,66.7
2022-11-07T10:12:17.931Z,66.5
2022-11-07T10:13:18.201Z,66.8
2022-11-07T10:14:17.936Z,67.1
2022-11-07T10:15:17.936Z,67.8
2022-11-07T10:16:17.934Z,67.9
2022-11-07T10:17:17.929Z,67.7
2022-11-07T10:18:17.933Z,68.6
2022-11-07T10:19:17.935Z,68.6
2022-11-07T10:20:23.370Z,69
2022-11-07T10:21:37.049Z,68.8
2022-11-07T10:22:17.937Z,68.6
2022-11-07T10:23:18.180Z,68.1
2022-11-07T10:24:17.944Z,68
2022-11-07T10:25:17.946Z,67.9
2022-11-07T10:26:17.953Z,68.1
2022-11-07T10:27:17.931Z,68.5
2022-11-07T10:28:17.952Z,68.2
2022-11-07T10:29:17.927Z,68.6
2022-11-07T10:30:17.929Z,69.3
2022-11-07T10:31:17.928Z,69.1
2022-11-07T10:32:17.930Z,69.9
2022-11-07T10:33:18.261Z,70.9
2022-11-07T10:34:17.929Z,70.7
2022-11-07T10:35:17.938Z,70.6
2022-11-07T10:36:17.929Z,70.3
2022-11-07T10:37:17.926Z,70.6
2022-11-07T10:38:17.930Z,70.4
2022-11-07T10:39:17.935Z,71.5
2022-11-07T10:40:17.979Z,71.4
2022-11-07T10:41:17.936Z,70.9
2022-11-07T10:42:17.944Z,72.2
2022-11-07T10:43:18.256Z,71.5
2022-11-07T10:44:17.970Z,71.5
2022-11-07T10:45:17.929Z,71.2
2022-11-07T10:47:17.939Z,71.1
2022-11-07T10:48:18.265Z,71
2022-11-07T10:49:17.936Z,71.4
2022-11-07T10:50:17.964Z,70.9
2022-11-07T10:51:17.930Z,70.8
2022-11-07T10:52:17.936Z,70.6
2022-11-07T10:53:17.935Z,69.9
2022-11-07T10:54:21.716Z,68.9
2022-11-07T10:55:17.932Z,69.3
2022-11-07T10:56:17.939Z,69.6
2022-11-07T10:57:17.988Z,69.3
2022-11-07T10:58:18.237Z,69.2
2022-11-07T10:59:17.931Z,69.5
2022-11-07T11:00:17.932Z,69.9
2022-11-07T11:01:17.995Z,69.9
2022-11-07T11:02:17.998Z,69.9
2022-11-07T11:03:17.929Z,70.1
2022-11-07T11:04:17.937Z,70.3
2022-11-07T11:05:17.933Z,70.3
2022-11-07T11:06:17.939Z,70
2022-11-07T11:07:17.932Z,70.5
2022-11-07T11:08:18.343Z,69.9
2022-11-07T11:09:17.939Z,69.7
2022-11-07T11:10:17.948Z,69.5
2022-11-07T11:11:17.936Z,68.8
2022-11-07T11:12:17.939Z,68.3
2022-11-07T11:13:17.955Z,68
2022-11-07T11:14:17.934Z,67.4
2022-11-07T11:15:17.938Z,68.3
2022-11-07T11:16:17.943Z,67.9
2022-11-07T11:17:17.982Z,67.4
2022-11-07T11:18:18.361Z,66.8
2022-11-07T11:19:17.958Z,66.9
2022-11-07T11:20:17.950Z,67.4
2022-11-07T11:21:17.939Z,67.8
2022-11-07T11:22:17.955Z,67.2
2022-11-07T11:23:18.206Z,67
2022-11-07T11:24:17.943Z,66.6
2022-11-07T11:25:17.937Z,67.1
2022-11-07T11:26:17.945Z,67.4
2022-11-07T11:27:17.938Z,67.2
2022-11-07T11:28:18.446Z,67.2
2022-11-07T11:29:17.941Z,66.7
2022-11-07T11:30:17.945Z,67
2022-11-07T11:31:17.932Z,66.8
2022-11-07T11:32:17.942Z,66.4
2022-11-07T11:33:18.287Z,66.1
2022-11-07T11:34:17.956Z,66.1
2022-11-07T11:35:17.950Z,66.7
2022-11-07T11:36:17.935Z,67.3
2022-11-07T11:37:17.943Z,67.6
2022-11-07T11:38:17.947Z,68.1
2022-11-07T11:39:17.941Z,67.6
2022-11-07T11:40:17.942Z,67.1
2022-11-07T11:41:17.945Z,66.6
2022-11-07T11:42:17.947Z,67.1
2022-11-07T11:43:18.360Z,66.9
2022-11-07T11:44:17.939Z,66.5
2022-11-07T11:45:17.948Z,66.2
2022-11-07T11:47:17.950Z,65.7
2022-11-07T11:48:17.943Z,65.8
2022-11-07T11:49:17.945Z,65.8
2022-11-07T11:50:17.974Z,65.2
2022-11-07T11:51:17.945Z,64.7
2022-11-07T11:52:17.947Z,64.2
2022-11-07T11:53:18.260Z,64.1
2022-11-07T11:54:17.949Z,64.3
2022-11-07T11:55:17.961Z,64.2
2022-11-07T11:56:17.947Z,64.1
2022-11-07T11:57:17.938Z,63.7
2022-11-07T11:58:17.945Z,63.8
2022-11-07T11:59:17.964Z,64.3
2022-11-07T12:00:17.946Z,64.2
2022-11-07T12:01:17.973Z,64.4
2022-11-07T12:02:18.049Z,64.9
2022-11-07T12:03:18.419Z,64.2
2022-11-07T12:04:17.948Z,64
2022-11-07T12:05:17.941Z,63.4
2022-11-07T12:06:17.950Z,63.9
2022-11-07T12:08:17.950Z,62.6
2022-11-07T12:09:18.461Z,63.2
2022-11-07T12:10:17.949Z,62.4
2022-11-07T12:11:17.945Z,62.5
2022-11-07T12:12:17.944Z,62.7
2022-11-07T12:13:18.384Z,62.9
2022-11-07T12:14:17.957Z,63.6
2022-11-07T12:15:17.947Z,62.8
2022-11-07T12:16:17.950Z,62.7
2022-11-07T12:17:17.951Z,62.6
2022-11-07T12:18:17.944Z,62.4
2022-11-07T12:19:17.946Z,61.6
2022-11-07T12:20:17.947Z,61.4
2022-11-07T12:21:17.944Z,61.2
2022-11-07T12:22:17.947Z,61.7
2022-11-07T12:23:18.301Z,61.9
2022-11-07T12:24:17.958Z,62.2
2022-11-07T12:25:17.945Z,62.4
2022-11-07T12:26:17.952Z,62.5
2022-11-07T12:27:21.460Z,62.3
2022-11-07T12:28:17.986Z,62.8
2022-11-07T12:29:17.953Z,63.5
2022-11-07T12:30:17.992Z,64.1
2022-11-07T12:31:17.954Z,63.6
2022-11-07T12:32:17.948Z,62.9
2022-11-07T12:33:18.404Z,62.3
2022-11-07T12:34:17.945Z,62.1
2022-11-07T12:35:17.948Z,62.1
2022-11-07T12:36:17.963Z,62
2022-11-07T12:37:17.954Z,61.8
2022-11-07T12:38:17.953Z,62.4
2022-11-07T12:39:17.952Z,63
2022-11-07T12:40:17.954Z,63
2022-11-07T12:41:17.957Z,62.2
2022-11-07T12:42:17.952Z,62
2022-11-07T12:43:18.514Z,62
2022-11-07T12:44:17.958Z,60.9
2022-11-07T12:45:17.951Z,61.9
2022-11-07T12:47:17.956Z,61.1
2022-11-07T12:48:17.955Z,62.3
2022-11-07T12:49:17.952Z,62.5
2022-11-07T12:50:17.954Z,62.3
2022-11-07T12:51:17.957Z,61.9
2022-11-07T12:52:17.967Z,61.1
2022-11-07T12:53:18.258Z,61
2022-11-07T12:54:17.969Z,60.7
2022-11-07T12:55:17.953Z,60.9
2022-11-07T12:56:17.969Z,60.3
2022-11-07T12:57:17.953Z,60.7
2022-11-07T12:58:17.956Z,60.3
2022-11-07T12:59:17.957Z,60.7
2022-11-07T13:00:17.952Z,60.4
2022-11-07T13:01:18.044Z,60.7
2022-11-07T13:02:18.095Z,60.7
2022-11-07T13:03:18.209Z,61.6
2022-11-07T13:04:17.957Z,61.7
2022-11-07T13:05:17.955Z,62.5
2022-11-07T13:06:17.961Z,63.1
2022-11-07T13:07:17.964Z,62.6
2022-11-07T13:08:17.963Z,62
2022-11-07T13:09:17.962Z,61.4
2022-11-07T13:10:17.952Z,61.1
2022-11-07T13:11:17.964Z,60.8
2022-11-07T13:12:17.960Z,60.8
2022-11-07T13:13:18.305Z,61.5
2022-11-07T13:14:22.727Z,61.1
2022-11-07T13:15:17.958Z,60.6
2022-11-07T13:16:17.961Z,60.3
2022-11-07T13:17:17.964Z,60.7
2022-11-07T13:18:17.963Z,60.3
2022-11-07T13:19:17.964Z,60.5
2022-11-07T13:20:17.958Z,60.3
2022-11-07T13:22:17.964Z,61.4
2022-11-07T13:23:18.238Z,61.2
2022-11-07T13:24:18.348Z,60.5
2022-11-07T13:25:18.119Z,61.2
2022-11-07T13:26:45.966Z,60.7
2022-11-07T13:27:17.962Z,60.8
2022-11-07T13:28:17.967Z,60.8
2022-11-07T13:29:17.964Z,60.8
2022-11-07T13:30:17.963Z,60.5
2022-11-07T13:31:17.960Z,60.5
2022-11-07T13:32:17.993Z,60
2022-11-07T13:33:18.239Z,60.1
2022-11-07T13:34:17.964Z,60.5
2022-11-07T13:35:17.964Z,60.6
2022-11-07T13:36:17.962Z,60.5
2022-11-07T13:37:17.976Z,60.4
2022-11-07T13:38:17.966Z,60.5
2022-11-07T13:39:17.980Z,60.2
2022-11-07T13:40:17.978Z,60.3
2022-11-07T13:41:17.966Z,60.6
2022-11-07T13:42:17.966Z,60.5
2022-11-07T13:43:18.168Z,60.3
2022-11-07T13:44:17.965Z,60.5